Time;durP1;ratioP1;P1;durP2;ratioP2;P2;SDS_P1;SDS_P2;PMS_P1;PMS_P2;Temp;Humidity;BMP_temperature;BMP_pressure;BME280_temperature;BME280_humidity;BME280_pressure;Samples;Min_cycle;Max_cycle;Signal;HPM_P1;HPM_P2
2022/01/26 00:06:32;;;;;;;105.07;36.47;;;2.00;99.90;;;;;;5069844;28;20888;-64
2022/01/26 00:08:59;;;;;;;141.85;37.58;;;2.00;99.90;;;;;;5067837;28;20464;-64
2022/01/26 00:11:25;;;;;;;219.03;46.63;;;2.00;99.90;;;;;;5069676;28;20380;-64
2022/01/26 00:13:51;;;;;;;216.87;45.67;;;2.00;99.90;;;;;;5068720;28;20395;-64
2022/01/26 00:16:26;;;;;;;208.63;45.77;;;2.10;99.90;;;;;;5068211;28;20442;-64
2022/01/26 00:18:54;;;;;;;168.18;39.53;;;1.90;99.90;;;;;;5068921;28;20858;-64
2022/01/26 00:40:09;;;;;;;135.38;40.25;;;1.50;99.90;;;;;;5088909;28;20727;-61
2022/01/26 00:42:38;;;;;;;148.85;41.67;;;1.30;99.90;;;;;;5089466;28;20372;-62
2022/01/26 00:45:08;;;;;;;146.73;39.13;;;1.20;99.90;;;;;;5087681;28;20378;-61
2022/01/26 00:47:34;;;;;;;145.95;38.72;;;1.20;99.90;;;;;;5089387;28;20384;-61
2022/01/26 00:50:05;;;;;;;165.70;40.53;;;1.20;99.90;;;;;;5088386;28;20524;-61
2022/01/26 00:52:42;;;;;;;150.75;40.05;;;1.20;99.90;;;;;;5087911;28;20387;-64
2022/01/26 00:55:11;;;;;;;173.05;40.42;;;1.10;99.90;;;;;;5081196;28;21014;-62
2022/01/26 00:57:37;;;;;;;137.75;34.97;;;1.10;99.90;;;;;;5084775;28;20386;-63
2022/01/26 01:00:09;;;;;;;151.43;36.70;;;1.00;99.90;;;;;;5068554;28;20387;-62
2022/01/26 01:02:35;;;;;;;169.07;38.22;;;0.90;99.90;;;;;;5069006;28;20391;-62
2022/01/26 01:05:05;;;;;;;130.50;35.53;;;0.90;99.90;;;;;;5068220;28;20376;-62
2022/01/26 01:07:37;;;;;;;160.10;38.40;;;0.70;99.90;;;;;;5069178;28;20376;-62
2022/01/26 01:10:04;;;;;;;155.77;38.30;;;1.70;99.90;;;;;;5068102;28;20817;-62
2022/01/26 01:12:31;;;;;;;144.32;38.35;;;0.50;99.90;;;;;;5069295;28;20858;-62
2022/01/26 01:14:57;;;;;;;151.73;38.00;;;0.50;99.90;;;;;;5068226;28;20391;-62
2022/01/26 01:17:26;;;;;;;195.85;39.88;;;0.60;99.90;;;;;;5068648;28;20731;-62
2022/01/26 01:20:26;;;;;;;195.82;44.55;;;0.50;99.90;;;;;;5067972;28;20411;-62
2022/01/26 01:30:30;;;;;;;107.78;32.92;;;0.30;99.90;;;;;;5089269;28;20423;-62
2022/01/26 01:33:10;;;;;;;119.47;31.60;;;0.40;99.90;;;;;;5088268;28;20490;-62
2022/01/26 01:35:40;;;;;;;112.72;31.33;;;0.40;99.90;;;;;;5088989;28;20382;-62
2022/01/26 01:38:10;;;;;;;87.15;27.83;;;0.70;99.90;;;;;;5088029;28;20394;-62
2022/01/26 01:40:39;;;;;;;148.40;32.38;;;0.70;99.90;;;;;;5088973;28;20382;-62
2022/01/26 01:43:06;;;;;;;134.52;31.73;;;0.70;99.90;;;;;;5088067;28;20423;-62
2022/01/26 01:45:34;;;;;;;146.45;34.55;;;0.60;99.90;;;;;;5088678;28;20382;-62
2022/01/26 01:48:00;;;;;;;123.78;32.58;;;0.60;99.90;;;;;;5086734;28;20402;-62
2022/01/26 01:50:26;;;;;;;100.85;30.40;;;0.50;99.90;;;;;;5087038;28;20405;-62
2022/01/26 01:52:59;;;;;;;107.77;29.13;;;0.40;99.90;;;;;;5087293;28;20378;-62
2022/01/26 01:55:27;;;;;;;100.85;28.48;;;0.40;99.90;;;;;;5088644;28;20918;-62
2022/01/26 01:57:54;;;;;;;131.73;31.42;;;1.50;99.90;;;;;;5091294;28;20429;-62
2022/01/26 02:00:20;;;;;;;156.30;33.55;;;0.40;99.90;;;;;;5091066;28;20763;-62
2022/01/26 02:02:45;;;;;;;89.77;28.07;;;0.40;99.90;;;;;;5092295;28;20385;-61
2022/01/26 02:05:11;;;;;;;103.23;27.97;;;0.50;99.90;;;;;;5090830;28;20385;-62
2022/01/26 02:07:38;;;;;;;99.53;26.52;;;0.50;99.90;;;;;;5092170;28;20784;-62
2022/01/26 02:10:04;;;;;;;90.57;28.05;;;0.60;99.90;;;;;;5091266;28;20394;-62
2022/01/26 02:12:33;;;;;;;95.45;26.75;;;0.70;99.90;;;;;;5092338;28;20385;-62
2022/01/26 02:15:07;;;;;;;120.30;28.30;;;0.70;99.90;;;;;;5091223;28;20504;-62
2022/01/26 02:53:49;;;;;;;171.35;35.25;;;0.70;99.90;;;;;;5091033;28;20401;-62
2022/01/26 03:03:43;;;;;;;163.80;34.07;;;0.90;99.90;;;;;;5091315;28;20414;-62
2022/01/26 03:06:14;;;;;;;115.10;29.20;;;0.80;99.90;;;;;;5090308;28;20381;-62
2022/01/26 03:08:55;;;;;;;143.35;31.00;;;0.70;99.90;;;;;;5090515;28;20410;-62
2022/01/26 03:11:26;;;;;;;122.13;31.05;;;0.80;99.90;;;;;;5081702;28;20400;-62
2022/01/26 03:13:59;;;;;;;117.47;30.58;;;0.80;99.90;;;;;;5077877;28;20372;-62
2022/01/26 03:16:36;;;;;;;150.52;33.85;;;0.90;99.90;;;;;;5081325;28;20803;-62
2022/01/26 03:22:18;;;;;;;105.95;28.38;;;1.10;99.90;;;;;;5070646;28;20467;-62
2022/01/26 03:35:14;;;;;;;115.30;28.30;;;1.00;99.90;;;;;;5069416;28;20456;-62
2022/01/26 03:37:49;;;;;;;102.35;28.33;;;1.00;99.90;;;;;;5070469;28;20467;-62
2022/01/26 03:40:15;;;;;;;130.35;31.48;;;0.80;99.90;;;;;;5070055;28;20376;-62
2022/01/26 03:42:41;;;;;;;121.70;30.27;;;0.90;99.90;;;;;;5070454;28;20375;-64
2022/01/26 03:45:10;;;;;;;125.57;32.05;;;2.00;99.90;;;;;;5069238;28;20392;-62
2022/01/26 03:47:36;;;;;;;114.80;29.08;;;1.00;99.90;;;;;;5069915;28;20415;-63
2022/01/26 03:50:01;;;;;;;207.33;36.80;;;2.10;99.90;;;;;;5074042;28;20449;-64
2022/01/26 03:52:27;;;;;;;123.60;29.20;;;1.20;99.90;;;;;;5080623;28;20935;-62
2022/01/26 03:54:53;;;;;;;111.07;29.20;;;1.10;99.90;;;;;;5086045;28;20618;-62
2022/01/26 03:57:18;;;;;;;112.20;28.38;;;1.30;99.90;;;;;;5088213;28;20378;-62
2022/01/26 03:59:44;;;;;;;110.83;27.77;;;1.20;99.90;;;;;;5088269;28;20382;-62
2022/01/26 04:02:09;;;;;;;91.22;26.60;;;1.30;99.90;;;;;;5087274;28;20386;-62
2022/01/26 04:04:43;;;;;;;81.10;26.23;;;1.00;99.90;;;;;;5088730;28;20409;-62
2022/01/26 04:07:09;;;;;;;84.37;26.93;;;1.00;99.90;;;;;;5088597;28;20450;-63
2022/01/26 04:09:35;;;;;;;96.70;27.90;;;1.10;99.90;;;;;;5090010;28;20505;-62
2022/01/26 04:12:01;;;;;;;91.05;27.10;;;1.10;99.90;;;;;;5089013;28;20393;-64
2022/01/26 04:14:30;;;;;;;98.28;28.63;;;1.10;99.90;;;;;;5089485;28;20378;-62
2022/01/26 04:16:56;;;;;;;96.68;28.02;;;1.10;99.90;;;;;;5088895;28;20480;-62
2022/01/26 04:19:23;;;;;;;97.00;28.38;;;1.20;99.90;;;;;;5088948;28;20489;-62
2022/01/26 04:24:20;;;;;;;91.43;27.45;;;1.20;99.90;;;;;;5089489;28;20383;-62
2022/01/26 04:26:52;;;;;;;90.68;27.05;;;1.10;99.90;;;;;;5089726;28;20752;-62
2022/01/26 04:29:28;;;;;;;103.10;28.63;;;1.10;99.90;;;;;;5089596;28;20413;-62
2022/01/26 04:31:54;;;;;;;88.20;27.42;;;1.20;99.90;;;;;;5088942;28;20378;-62
2022/01/26 04:34:20;;;;;;;86.47;26.30;;;1.20;99.90;;;;;;5089695;28;20381;-62
2022/01/26 04:39:24;;;;;;;80.80;24.92;;;1.30;99.90;;;;;;5088197;28;20443;-62
2022/01/26 04:41:57;;;;;;;91.80;26.30;;;1.40;99.90;;;;;;5089054;28;20389;-60
2022/01/26 04:44:27;;;;;;;98.10;28.63;;;1.50;99.90;;;;;;5089621;28;20390;-62
2022/01/26 04:46:53;;;;;;;113.60;27.20;;;1.50;99.90;;;;;;5089007;28;20393;-60
2022/01/26 04:49:19;;;;;;;89.95;26.50;;;1.50;99.90;;;;;;5087794;28;20403;-62
2022/01/26 04:51:45;;;;;;;79.30;24.63;;;1.40;99.90;;;;;;5089647;28;20424;-62
2022/01/26 04:54:11;;;;;;;110.90;26.25;;;1.30;99.90;;;;;;5087507;28;20385;-62
2022/01/26 04:56:37;;;;;;;103.67;25.37;;;1.30;99.90;;;;;;5089143;28;20400;-62
2022/01/26 04:59:04;;;;;;;101.63;28.33;;;2.00;99.90;;;;;;5088744;28;20381;-62
2022/01/26 05:01:30;;;;;;;87.45;26.27;;;1.10;99.90;;;;;;5078086;28;20416;-62
2022/01/26 05:03:55;;;;;;;84.45;26.85;;;1.00;99.90;;;;;;5083377;28;20817;-62
2022/01/26 05:06:21;;;;;;;93.32;28.20;;;1.50;99.90;;;;;;5072174;28;20386;-63
2022/01/26 05:08:47;;;;;;;108.53;27.47;;;1.10;99.90;;;;;;5078730;28;20806;-62
2022/01/26 05:11:18;;;;;;;103.07;28.52;;;1.10;99.90;;;;;;5077488;28;20390;-62
2022/01/26 05:13:44;;;;;;;90.05;27.65;;;1.30;99.90;;;;;;5089365;28;20386;-63
2022/01/26 05:16:10;;;;;;;96.78;27.17;;;1.30;99.90;;;;;;5088040;28;20477;-63
2022/01/26 05:18:36;;;;;;;95.55;26.98;;;1.20;99.90;;;;;;5088952;28;20413;-63
2022/01/26 05:21:01;;;;;;;90.43;27.80;;;1.90;99.90;;;;;;5088158;28;20393;-63
2022/01/26 05:23:27;;;;;;;83.68;25.45;;;1.20;99.90;;;;;;5071252;28;20478;-63
2022/01/26 05:25:53;;;;;;;109.83;26.90;;;2.10;99.90;;;;;;5067962;28;20737;-60
2022/01/26 05:28:18;;;;;;;117.10;27.70;;;1.00;99.90;;;;;;5068462;28;20399;-62
2022/01/26 05:30:47;;;;;;;112.35;28.85;;;1.00;99.90;;;;;;5069806;28;20472;-63
2022/01/26 05:33:13;;;;;;;95.30;28.53;;;1.00;99.90;;;;;;5087341;28;20383;-61
2022/01/26 05:35:41;;;;;;;100.23;27.93;;;1.00;99.90;;;;;;5072204;28;20456;-64
2022/01/26 05:38:07;;;;;;;95.15;27.50;;;1.00;99.90;;;;;;5071439;28;20388;-63
2022/01/26 05:40:32;;;;;;;80.93;26.13;;;1.00;99.90;;;;;;5071904;28;20380;-65
2022/01/26 05:42:58;;;;;;;81.90;26.60;;;0.80;99.90;;;;;;5070961;28;20972;-62
2022/01/26 05:45:32;;;;;;;87.70;28.27;;;0.80;99.90;;;;;;5072277;28;20928;-63
2022/01/26 05:48:01;;;;;;;79.47;25.83;;;0.70;99.90;;;;;;5074854;28;20406;-63
2022/01/26 05:50:27;;;;;;;89.13;27.63;;;0.80;99.90;;;;;;5076027;28;20473;-63
2022/01/26 05:52:53;;;;;;;97.68;28.33;;;0.70;99.90;;;;;;5076873;28;20774;-61
2022/01/26 05:55:18;;;;;;;92.00;29.60;;;0.70;99.90;;;;;;5087237;28;20424;-62
2022/01/26 05:57:44;;;;;;;96.93;29.48;;;0.70;99.90;;;;;;5081409;28;20764;-64
2022/01/26 06:00:11;;;;;;;106.32;29.77;;;0.80;99.90;;;;;;5084621;28;20883;-63
2022/01/26 06:02:37;;;;;;;100.03;27.70;;;0.90;99.90;;;;;;5073562;28;20927;-63
2022/01/26 06:05:03;;;;;;;87.30;27.23;;;2.00;99.90;;;;;;5073547;28;20410;-64
2022/01/26 06:07:28;;;;;;;83.80;26.40;;;0.80;99.90;;;;;;5076760;28;20420;-64
2022/01/26 06:09:54;;;;;;;96.27;27.00;;;0.80;99.90;;;;;;5081782;28;20460;-60
2022/01/26 06:12:19;;;;;;;97.00;28.33;;;0.80;99.90;;;;;;5076341;28;21035;-63
2022/01/26 06:14:45;;;;;;;85.50;28.60;;;0.90;99.90;;;;;;5082029;28;20878;-65
2022/01/26 06:17:11;;;;;;;100.55;29.23;;;0.90;99.90;;;;;;5075634;28;20432;-63
2022/01/26 06:19:36;;;;;;;90.90;30.57;;;0.80;99.90;;;;;;5074956;28;20499;-64
2022/01/26 06:22:02;;;;;;;98.90;31.30;;;1.00;99.90;;;;;;5076575;28;20718;-63
2022/01/26 06:24:28;;;;;;;89.40;26.52;;;0.90;99.90;;;;;;5070946;28;20388;-65
2022/01/26 06:26:54;;;;;;;107.95;30.42;;;0.90;99.90;;;;;;5076677;28;20378;-61
2022/01/26 06:29:19;;;;;;;89.20;28.33;;;1.00;99.90;;;;;;5073755;28;20903;-64
2022/01/26 06:31:45;;;;;;;102.23;28.80;;;1.10;99.90;;;;;;5074133;28;20388;-64
2022/01/26 06:34:11;;;;;;;90.40;29.23;;;1.20;99.90;;;;;;5075082;28;20480;-63
2022/01/26 06:36:44;;;;;;;95.53;26.87;;;1.00;99.90;;;;;;5071088;28;20380;-64
2022/01/26 06:39:13;;;;;;;79.30;27.02;;;1.00;99.90;;;;;;5068634;28;20437;-64
2022/01/26 06:41:47;;;;;;;84.10;25.70;;;0.90;99.90;;;;;;5072063;28;20418;-64
2022/01/26 06:44:29;;;;;;;86.00;26.60;;;0.90;99.90;;;;;;5074437;28;20907;-65
2022/01/26 06:47:13;;;;;;;88.10;27.73;;;0.70;99.90;;;;;;5077168;28;20455;-60
2022/01/26 06:49:39;;;;;;;94.57;26.95;;;0.80;99.90;;;;;;5095228;28;20400;-63
2022/01/26 06:52:05;;;;;;;104.10;29.55;;;0.90;99.90;;;;;;5081345;28;20404;-63
2022/01/26 06:54:31;;;;;;;92.38;29.00;;;0.90;99.90;;;;;;5088537;28;20867;-64
2022/01/26 06:56:56;;;;;;;89.78;29.17;;;0.90;99.90;;;;;;5102849;28;20385;-63
2022/01/26 06:59:24;;;;;;;86.28;29.58;;;1.00;99.90;;;;;;5108114;28;20381;-63
2022/01/26 07:01:51;;;;;;;92.63;28.60;;;1.10;99.90;;;;;;5111079;28;20459;-63
2022/01/26 07:04:17;;;;;;;94.97;29.70;;;0.90;99.90;;;;;;5096018;28;20390;-65
2022/01/26 07:06:43;;;;;;;80.95;28.23;;;0.80;99.90;;;;;;5086397;28;20407;-64
2022/01/26 07:09:08;;;;;;;94.57;28.58;;;0.80;99.90;;;;;;5076300;28;20405;-66
2022/01/26 07:11:34;;;;;;;90.43;30.33;;;0.70;99.90;;;;;;5090962;28;20488;-64
2022/01/26 07:14:02;;;;;;;86.20;27.88;;;0.90;99.90;;;;;;5083569;28;20860;-65
2022/01/26 07:19:50;;;;;;;81.03;28.65;;;1.00;99.90;;;;;;5075208;28;20683;-67
2022/01/26 07:22:13;;;;;;;97.40;29.10;;;1.10;99.90;;;;;;5083754;28;20446;-64
2022/01/26 07:24:38;;;;;;;88.17;28.47;;;1.10;99.90;;;;;;5084032;28;20439;-65
2022/01/26 07:27:05;;;;;;;88.67;29.03;;;1.20;99.90;;;;;;5076652;28;20511;-64
2022/01/26 07:29:32;;;;;;;84.50;26.55;;;1.20;99.90;;;;;;5077916;28;20411;-64
2022/01/26 07:31:58;;;;;;;77.13;27.13;;;1.20;99.90;;;;;;5087496;28;20800;-63
2022/01/26 07:34:24;;;;;;;77.40;26.63;;;1.20;99.90;;;;;;5078420;28;20376;-64
2022/01/26 07:36:54;;;;;;;87.47;27.93;;;1.20;99.90;;;;;;5089211;28;20729;-64
2022/01/26 07:39:30;;;;;;;80.85;27.20;;;1.30;99.90;;;;;;5090411;28;20861;-65
2022/01/26 07:41:56;;;;;;;79.38;28.05;;;1.20;99.90;;;;;;5089399;28;20457;-60
2022/01/26 07:44:22;;;;;;;76.07;26.88;;;1.10;99.90;;;;;;5088843;28;20378;-64
2022/01/26 07:46:48;;;;;;;76.40;25.45;;;1.10;99.90;;;;;;5093518;28;20756;-66
2022/01/26 07:49:13;;;;;;;68.13;23.93;;;1.10;99.90;;;;;;5082559;28;20407;-66
2022/01/26 07:51:39;;;;;;;83.67;25.30;;;2.00;99.90;;;;;;5078230;28;20412;-65
2022/01/26 07:54:05;;;;;;;77.32;25.23;;;1.00;99.90;;;;;;5069740;28;20406;-64
2022/01/26 07:56:30;;;;;;;75.60;25.33;;;1.00;99.90;;;;;;5075600;28;20435;-64
2022/01/26 07:58:58;;;;;;;76.60;24.40;;;1.00;99.90;;;;;;5073331;28;20468;-62
2022/01/26 08:01:23;;;;;;;73.75;24.60;;;1.10;99.90;;;;;;5072454;28;20439;-55
2022/01/26 08:03:49;;;;;;;67.73;24.33;;;1.20;99.90;;;;;;5081688;28;20485;-56
2022/01/26 08:06:17;;;;;;;76.78;24.75;;;2.30;99.90;;;;;;5084601;28;20401;-56
2022/01/26 08:08:43;;;;;;;74.75;24.42;;;1.20;99.90;;;;;;5084671;28;20458;-56
2022/01/26 08:11:09;;;;;;;82.07;25.17;;;1.20;99.90;;;;;;5084805;28;20410;-62
2022/01/26 08:13:35;;;;;;;64.75;22.80;;;1.20;99.90;;;;;;5080525;28;20393;-59
2022/01/26 08:16:01;;;;;;;62.80;24.58;;;1.20;99.90;;;;;;5079264;28;20484;-59
2022/01/26 08:18:27;;;;;;;72.07;24.95;;;1.30;99.90;;;;;;5084805;28;20576;-56
2022/01/26 08:20:53;;;;;;;70.28;24.05;;;1.70;99.90;;;;;;5088809;28;20542;-63
2022/01/26 08:23:21;;;;;;;75.10;24.10;;;1.30;99.90;;;;;;5088993;28;20431;-63
2022/01/26 08:25:47;;;;;;;82.43;26.48;;;1.30;99.90;;;;;;5089208;28;20385;-62
2022/01/26 08:28:20;;;;;;;81.78;25.92;;;1.20;99.90;;;;;;5088972;28;20378;-64
2022/01/26 08:30:46;;;;;;;83.20;25.80;;;1.20;99.90;;;;;;5089029;28;20398;-64
2022/01/26 08:33:12;;;;;;;71.57;24.90;;;1.20;99.90;;;;;;5084550;28;20927;-69
2022/01/26 08:35:38;;;;;;;76.90;25.93;;;1.20;99.90;;;;;;5088351;28;20528;-64
2022/01/26 08:38:04;;;;;;;65.23;22.90;;;1.30;99.90;;;;;;5088440;28;20858;-65
2022/01/26 08:40:33;;;;;;;61.50;21.52;;;1.20;99.90;;;;;;5082824;28;20429;-64
2022/01/26 08:42:59;;;;;;;61.63;22.38;;;1.70;99.90;;;;;;5078767;28;20393;-64
2022/01/26 08:45:25;;;;;;;56.60;22.08;;;0.90;99.90;;;;;;5089167;28;20386;-63
2022/01/26 08:47:51;;;;;;;59.65;21.00;;;0.90;99.90;;;;;;5089016;28;20639;-65
2022/01/26 08:50:17;;;;;;;55.15;19.95;;;1.00;99.90;;;;;;5078687;28;20412;-67
2022/01/26 08:52:43;;;;;;;64.05;22.40;;;1.00;99.90;;;;;;5074875;28;20821;-65
2022/01/26 08:55:10;;;;;;;61.47;20.35;;;1.10;99.90;;;;;;5068580;28;20397;-67
2022/01/26 08:57:36;;;;;;;60.17;20.85;;;1.00;99.90;;;;;;5083715;28;20394;-68
2022/01/26 09:00:05;;;;;;;63.35;19.55;;;1.00;99.90;;;;;;5088171;28;20386;-63
2022/01/26 09:02:31;;;;;;;63.95;21.60;;;1.10;99.90;;;;;;5080953;28;20843;-63
2022/01/26 09:04:56;;;;;;;66.45;22.67;;;1.00;99.90;;;;;;5090113;28;20444;-60
2022/01/26 09:07:22;;;;;;;72.88;23.92;;;0.80;99.90;;;;;;5091022;28;20457;-62
2022/01/26 09:09:48;;;;;;;67.00;22.87;;;0.90;99.90;;;;;;5087161;28;20479;-66
2022/01/26 09:12:17;;;;;;;70.20;25.60;;;1.00;99.90;;;;;;5092961;28;20953;-64
2022/01/26 09:14:45;;;;;;;65.85;23.20;;;1.90;99.90;;;;;;5090587;28;20394;-65
2022/01/26 09:17:13;;;;;;;67.28;23.40;;;1.10;99.90;;;;;;5086667;28;20426;-66
2022/01/26 09:19:42;;;;;;;66.50;23.17;;;1.20;99.90;;;;;;5090932;28;20386;-63
2022/01/26 09:22:10;;;;;;;60.97;21.52;;;1.10;99.90;;;;;;5088224;28;20396;-65
2022/01/26 09:24:38;;;;;;;62.75;24.25;;;1.10;99.90;;;;;;5092022;28;20431;-62
2022/01/26 09:27:07;;;;;;;64.57;23.63;;;1.00;99.90;;;;;;5091509;28;20376;-64
2022/01/26 09:29:35;;;;;;;65.15;23.08;;;1.10;99.90;;;;;;5092033;28;20783;-63
2022/01/26 09:32:04;;;;;;;71.15;23.40;;;1.10;99.90;;;;;;5091304;28;20468;-60
2022/01/26 09:34:35;;;;;;;64.78;23.42;;;1.20;99.90;;;;;;5092471;28;21160;-63
2022/01/26 09:37:04;;;;;;;62.90;22.70;;;1.30;99.90;;;;;;5091640;28;20432;-61
2022/01/26 09:39:31;;;;;;;63.92;22.85;;;1.20;99.90;;;;;;5091452;28;20394;-64
2022/01/26 09:41:59;;;;;;;55.55;23.42;;;1.10;99.90;;;;;;5091718;28;20376;-63
2022/01/26 09:44:26;;;;;;;61.55;22.88;;;1.00;99.90;;;;;;5091497;28;20808;-62
2022/01/26 09:46:53;;;;;;;65.45;21.35;;;0.90;99.90;;;;;;5092530;28;20521;-63
2022/01/26 09:49:21;;;;;;;68.55;23.17;;;1.00;99.90;;;;;;5089388;28;20417;-63
2022/01/26 09:51:50;;;;;;;77.00;23.50;;;1.00;99.90;;;;;;5088985;28;20462;-64
2022/01/26 09:54:19;;;;;;;65.65;22.85;;;1.20;99.90;;;;;;5082869;28;20402;-61
2022/01/26 09:56:50;;;;;;;63.42;23.30;;;1.00;99.90;;;;;;5091167;28;20867;-61
2022/01/26 09:59:19;;;;;;;65.70;24.35;;;1.00;99.90;;;;;;5091019;28;20374;-63
2022/01/26 10:01:51;;;;;;;74.05;25.25;;;1.00;99.90;;;;;;5091869;28;20812;-63
2022/01/26 10:04:29;;;;;;;69.53;24.20;;;1.00;99.90;;;;;;5087690;28;20779;-62
2022/01/26 10:08:24;;;;;;;79.13;22.90;;;1.00;99.90;;;;;;5089631;28;20469;-62
2022/01/26 10:10:34;;;;;;;78.03;26.00;;;0.90;99.90;;;;;;5088195;28;20445;-62
2022/01/26 10:18:39;;;;;;;62.55;22.67;;;0.90;99.90;;;;;;5088958;28;20497;-63
2022/01/26 10:21:09;;;;;;;62.65;23.85;;;1.10;99.90;;;;;;5088894;28;20473;-62
2022/01/26 10:23:38;;;;;;;56.42;23.83;;;1.40;99.90;;;;;;5090357;28;20887;-63
2022/01/26 10:26:09;;;;;;;56.10;22.27;;;1.40;99.90;;;;;;5089423;28;20472;-63
2022/01/26 10:28:54;;;;;;;59.42;20.70;;;1.50;99.90;;;;;;5090881;28;20832;-65
2022/01/26 10:31:23;;;;;;;59.85;21.90;;;1.50;99.90;;;;;;5086438;28;20425;-62
2022/01/26 10:34:15;;;;;;;68.60;22.98;;;1.50;99.90;;;;;;5089564;28;20485;-62
2022/01/26 10:37:00;;;;;;;71.97;24.70;;;1.50;99.90;;;;;;5087288;28;20390;-65
2022/01/26 10:39:33;;;;;;;62.65;24.15;;;1.70;99.90;;;;;;5088486;28;20390;-63
2022/01/26 10:42:06;;;;;;;57.87;21.73;;;1.80;99.90;;;;;;5091418;28;21695;-60
2022/01/26 10:44:44;;;;;;;62.55;23.80;;;1.80;99.90;;;;;;5090116;28;20757;-63
2022/01/26 10:47:11;;;;;;;64.18;25.10;;;1.80;99.90;;;;;;5084888;28;20863;-67
2022/01/26 10:52:40;;;;;;;60.65;20.67;;;2.30;99.90;;;;;;5087016;28;20395;-68
2022/01/26 10:55:09;;;;;;;65.70;24.50;;;1.60;99.90;;;;;;5068776;28;20379;-66
2022/01/26 10:57:37;;;;;;;55.58;21.85;;;1.50;99.90;;;;;;5075874;28;20851;-67
2022/01/26 11:00:06;;;;;;;49.38;20.00;;;1.50;99.90;;;;;;5087282;28;20396;-61
2022/01/26 11:02:34;;;;;;;58.92;22.10;;;1.40;99.90;;;;;;5089344;28;21100;-66
2022/01/26 11:05:01;;;;;;;60.22;22.58;;;1.40;99.90;;;;;;5087795;28;20436;-61
2022/01/26 11:07:37;;;;;;;57.50;22.17;;;1.40;99.90;;;;;;5091138;28;20911;-66
2022/01/26 11:10:05;;;;;;;87.10;26.70;;;1.30;99.90;;;;;;5093110;28;20449;-61
2022/01/26 11:12:32;;;;;;;89.15;26.70;;;1.20;99.90;;;;;;5093688;28;20410;-66
2022/01/26 11:15:09;;;;;;;69.80;25.45;;;1.00;99.90;;;;;;5090242;28;21490;-66
2022/01/26 11:17:46;;;;;;;82.63;24.88;;;1.00;99.90;;;;;;5090149;28;20729;-67
2022/01/26 11:20:32;;;;;;;64.57;21.38;;;1.00;99.90;;;;;;5087683;28;20446;-67
2022/01/26 11:23:04;;;;;;;116.93;32.20;;;0.80;99.90;;;;;;5090483;28;20383;-67
2022/01/26 11:25:40;;;;;;;65.70;22.25;;;1.00;99.90;;;;;;5089963;28;20390;-66
2022/01/26 11:28:21;;;;;;;68.67;22.30;;;1.70;99.90;;;;;;5086069;28;20413;-66
2022/01/26 11:30:48;;;;;;;62.55;21.88;;;1.00;99.90;;;;;;5090242;28;20409;-66
2022/01/26 11:33:14;;;;;;;105.47;26.42;;;1.00;99.90;;;;;;5088390;28;20728;-68
2022/01/26 11:35:44;;;;;;;80.47;22.70;;;0.90;99.90;;;;;;5089032;28;20394;-68
2022/01/26 11:42:16;;;;;;;81.90;25.00;;;0.90;99.90;;;;;;5088218;28;20463;-66
2022/01/26 11:46:55;;;;;;;57.28;20.23;;;0.90;99.90;;;;;;5090170;28;20423;-66
2022/01/26 11:49:33;;;;;;;60.17;21.52;;;0.80;99.90;;;;;;5081196;28;20724;-66
2022/01/26 11:51:59;;;;;;;68.82;23.35;;;0.90;99.90;;;;;;5084227;28;20415;-61
2022/01/26 11:54:28;;;;;;;78.00;25.70;;;1.00;99.90;;;;;;5088588;28;20408;-65
2022/01/26 11:57:02;;;;;;;50.88;19.08;;;1.10;99.90;;;;;;5079321;28;20391;-65
2022/01/26 11:59:31;;;;;;;69.28;22.90;;;1.10;99.90;;;;;;5077051;28;20390;-65
2022/01/26 12:02:04;;;;;;;59.45;21.45;;;0.90;99.90;;;;;;5079256;28;20855;-67
2022/01/26 12:04:36;;;;;;;64.32;22.67;;;0.90;99.90;;;;;;5069891;28;20410;-66
2022/01/26 12:07:23;;;;;;;69.80;24.45;;;1.00;99.90;;;;;;5087204;28;20906;-62
2022/01/26 12:09:49;;;;;;;58.25;19.42;;;1.00;99.90;;;;;;5093047;28;20406;-67
2022/01/26 12:12:17;;;;;;;51.67;19.60;;;0.90;99.90;;;;;;5089063;28;20384;-66
2022/01/26 12:14:46;;;;;;;60.42;21.60;;;0.90;99.90;;;;;;5077529;28;20390;-66
2022/01/26 12:17:24;;;;;;;68.53;24.55;;;-0.20;99.90;;;;;;5082841;28;20436;-66
2022/01/26 12:32:04;;;;;;;52.65;20.60;;;1.60;99.90;;;;;;5074024;28;20445;-63
2022/01/26 12:42:13;;;;;;;70.35;22.85;;;0.70;99.90;;;;;;5070630;28;20442;-66
2022/01/26 12:44:39;;;;;;;74.07;24.17;;;0.90;99.90;;;;;;5078643;28;20407;-65
2022/01/26 12:47:05;;;;;;;69.67;23.27;;;0.80;99.90;;;;;;5070751;28;20395;-66
2022/01/26 12:49:31;;;;;;;96.87;23.20;;;0.80;99.90;;;;;;5074764;28;20893;-65
2022/01/26 12:51:57;;;;;;;74.57;25.52;;;0.80;99.90;;;;;;5077092;28;20400;-66
2022/01/26 12:54:24;;;;;;;66.63;21.88;;;0.80;99.90;;;;;;5075407;28;20453;-66
2022/01/26 12:56:50;;;;;;;55.78;20.38;;;0.90;99.90;;;;;;5081248;28;20434;-66
2022/01/26 12:59:20;;;;;;;53.72;19.38;;;0.90;99.90;;;;;;5068185;28;20466;-65
2022/01/26 13:01:47;;;;;;;53.28;18.90;;;1.60;99.90;;;;;;5074909;28;20403;-66
2022/01/26 13:04:16;;;;;;;48.40;16.95;;;0.90;99.90;;;;;;5082287;28;20469;-66
2022/01/26 13:06:51;;;;;;;55.88;20.65;;;0.70;99.90;;;;;;5079826;28;20460;-67
2022/01/26 13:09:18;;;;;;;53.08;19.85;;;0.70;99.90;;;;;;5083816;28;20906;-67
2022/01/26 13:11:47;;;;;;;56.53;20.23;;;0.80;99.90;;;;;;5086543;28;20396;-65
2022/01/26 13:14:26;;;;;;;55.05;19.40;;;0.90;99.90;;;;;;5075566;28;20403;-65
2022/01/26 13:19:50;;;;;;;46.50;17.58;;;0.80;99.90;;;;;;5086145;28;20807;-63
2022/01/26 13:23:34;;;;;;;42.05;19.40;;;0.70;99.90;;;;;;5077869;28;20730;-65
2022/01/26 13:36:25;;;;;;;51.85;19.10;;;0.80;99.90;;;;;;5087816;28;20404;-65
2022/01/26 13:57:10;;;;;;;43.25;15.68;;;0.50;99.90;;;;;;5083728;28;20424;-65
2022/01/26 13:59:49;;;;;;;46.53;18.13;;;0.30;99.90;;;;;;5087745;28;20393;-63
2022/01/26 14:02:14;;;;;;;45.33;16.52;;;0.30;99.90;;;;;;5087200;28;20374;-65
2022/01/26 14:04:40;;;;;;;46.92;18.33;;;0.30;99.90;;;;;;5091906;28;20444;-64
2022/01/26 14:07:06;;;;;;;54.45;19.13;;;0.40;99.90;;;;;;5090007;28;20851;-63
2022/01/26 14:09:32;;;;;;;56.60;16.90;;;0.50;99.90;;;;;;5077985;28;20404;-65
2022/01/26 14:11:59;;;;;;;48.73;17.53;;;0.50;99.90;;;;;;5069680;28;20521;-64
2022/01/26 14:14:32;;;;;;;53.25;18.25;;;0.50;99.90;;;;;;5083618;28;20635;-64
2022/01/26 14:17:01;;;;;;;47.60;17.52;;;0.50;99.90;;;;;;5091297;28;20445;-64
2022/01/26 14:27:25;;;;;;;47.72;17.38;;;0.60;99.90;;;;;;5091123;28;20385;-65
2022/01/26 14:30:01;;;;;;;49.38;16.45;;;0.60;99.90;;;;;;5091789;28;20408;-65
2022/01/26 14:35:17;;;;;;;49.33;17.52;;;0.60;99.90;;;;;;5073921;28;20388;-66
2022/01/26 15:22:42;;;;;;;35.10;13.15;;;0.20;99.90;;;;;;5089898;28;20492;-67
2022/01/26 15:35:06;;;;;;;45.47;16.73;;;0.50;99.90;;;;;;5089959;28;20819;-64
2022/01/26 16:07:11;;;;;;;40.63;14.75;;;0.50;99.90;;;;;;5060557;28;20838;-62
2022/01/26 16:26:42;;;;;;;39.65;15.75;;;0.30;99.90;;;;;;5084965;28;20759;-61
2022/01/26 18:16:44;;;;;;;34.72;15.43;;;0.60;99.90;;;;;;5087616;28;20493;-60
2022/01/26 18:32:48;;;;;;;38.88;15.70;;;1.00;99.90;;;;;;5085721;28;20745;-63
2022/01/26 18:49:12;;;;;;;40.20;16.00;;;0.70;99.90;;;;;;5084759;28;20503;-63
2022/01/26 18:51:41;;;;;;;41.63;17.33;;;0.70;99.90;;;;;;5079179;28;20417;-61
2022/01/26 18:54:09;;;;;;;44.20;17.38;;;0.70;99.90;;;;;;5080899;28;20805;-65
2022/01/26 18:56:35;;;;;;;40.53;16.95;;;0.70;99.90;;;;;;5077309;28;20404;-63
2022/01/26 18:59:02;;;;;;;51.07;19.80;;;0.60;99.90;;;;;;5079407;28;20481;-62
2022/01/26 19:01:28;;;;;;;45.60;19.63;;;1.30;99.90;;;;;;5078480;28;20449;-65
2022/01/26 19:03:54;;;;;;;50.03;18.50;;;1.80;99.90;;;;;;5081010;28;20834;-63
2022/01/26 19:06:19;;;;;;;49.70;18.90;;;0.30;99.90;;;;;;5078357;28;20411;-63
2022/01/26 19:08:45;;;;;;;52.10;18.77;;;0.50;99.90;;;;;;5082053;28;20498;-64
2022/01/26 19:11:12;;;;;;;47.85;18.13;;;0.50;99.90;;;;;;5078079;28;20468;-58
2022/01/26 19:13:41;;;;;;;53.63;20.23;;;0.50;99.90;;;;;;5079403;28;20402;-63
2022/01/26 19:16:18;;;;;;;48.63;17.17;;;0.60;99.90;;;;;;5081330;28;20423;-65
2022/01/26 19:18:54;;;;;;;45.63;17.27;;;0.40;99.90;;;;;;5079859;28;20398;-72
2022/01/26 19:26:37;;;;;;;33.83;14.50;;;0.40;99.90;;;;;;5082407;28;20437;-64
2022/01/26 19:53:10;;;;;;;33.93;14.90;;;0.30;99.90;;;;;;5093838;28;21564;-60
2022/01/26 19:55:36;;;;;;;33.30;14.10;;;0.30;99.90;;;;;;5094638;28;20387;-63
2022/01/26 19:58:04;;;;;;;39.15;14.65;;;0.30;99.90;;;;;;5099874;28;20425;-63
2022/01/26 20:00:30;;;;;;;38.25;14.75;;;0.40;99.90;;;;;;5090229;28;20382;-63
2022/01/26 20:02:57;;;;;;;38.17;14.45;;;0.40;99.90;;;;;;5088391;28;20378;-64